Time;durP1;ratioP1;P1;durP2;ratioP2;P2;SDS_P1;SDS_P2;PMS_P1;PMS_P2;Temp;Humidity;BMP_temperature;BMP_pressure;BME280_temperature;BME280_humidity;BME280_pressure;Samples;Min_cycle;Max_cycle;Signal;HPM_P1;HPM_P2
2022/12/22 03:26:52;;;;;;;0.83;0.83;;;;;;;;;;5025230;28;20217;-85
2022/12/22 03:29:17;;;;;;;1.20;1.10;;;;;;;;;;5018455;28;20183;-85
2022/12/22 03:31:42;;;;;;;1.67;1.00;;;;;;;;;;5009068;28;20194;-85
2022/12/22 03:34:07;;;;;;;1.50;1.40;;;;;;;;;;5017159;28;20167;-85
2022/12/22 03:36:33;;;;;;;0.60;0.60;;;;;;;;;;5032298;28;20234;-85
2022/12/22 03:38:58;;;;;;;1.03;0.80;;;;;;;;;;5046215;28;20197;-85
2022/12/22 03:46:51;;;;;;;2.13;1.63;;;;;;;;;;5049917;28;20224;-85
2022/12/22 03:49:18;;;;;;;2.17;0.90;;;;;;;;;;5043925;28;20238;-85
2022/12/22 03:51:47;;;;;;;1.50;1.40;;;;;;;;;;5041940;28;20366;-85
2022/12/22 03:54:14;;;;;;;2.00;1.53;;;;;;;;;;5046394;28;20177;-85
2022/12/22 03:56:39;;;;;;;2.03;1.00;;;;;;;;;;5046513;28;20232;-85
2022/12/22 03:59:05;;;;;;;4.80;1.10;;;;;;;;;;5044082;28;20178;-85
2022/12/22 04:01:31;;;;;;;2.37;1.53;;;;;;;;;;5043462;28;20189;-85
2022/12/22 04:03:56;;;;;;;2.03;1.70;;;;;;;;;;5049138;28;20212;-84
2022/12/22 04:06:22;;;;;;;2.53;1.30;;;;;;;;;;5045882;28;20205;-84
2022/12/22 04:08:47;;;;;;;2.13;1.10;;;;;;;;;;5041749;28;20402;-85
2022/12/22 04:13:57;;;;;;;7.10;1.40;;;;;;;;;;5047644;28;20258;-84
2022/12/22 04:16:22;;;;;;;2.33;1.60;;;;;;;;;;5049889;28;20196;-84
2022/12/22 04:18:48;;;;;;;1.97;1.57;;;;;;;;;;5049088;28;20241;-85
2022/12/22 04:21:13;;;;;;;2.40;1.17;;;;;;;;;;5040321;28;20197;-85
2022/12/22 04:23:38;;;;;;;1.57;1.30;;;;;;;;;;5047828;28;20274;-85
2022/12/22 04:26:04;;;;;;;2.23;1.43;;;;;;;;;;5047816;28;20245;-85
2022/12/22 04:28:29;;;;;;;0.80;0.80;;;;;;;;;;5047398;28;20173;-83
2022/12/22 04:30:54;;;;;;;1.43;1.30;;;;;;;;;;5042884;28;20190;-83
2022/12/22 04:33:19;;;;;;;1.27;1.00;;;;;;;;;;5040595;28;20327;-83
2022/12/22 04:35:44;;;;;;;1.30;1.00;;;;;;;;;;5064620;28;20214;-83
2022/12/22 04:38:10;;;;;;;1.00;1.00;;;;;;;;;;5064832;28;20249;-83
2022/12/22 04:40:35;;;;;;;1.27;1.17;;;;;;;;;;5046331;28;20278;-83
2022/12/22 04:43:00;;;;;;;1.10;1.10;;;;;;;;;;5064387;28;20185;-83
2022/12/22 04:45:25;;;;;;;0.90;0.90;;;;;;;;;;5041201;28;20188;-83
2022/12/22 04:47:51;;;;;;;1.03;0.90;;;;;;;;;;5045220;28;20166;-83
2022/12/22 04:50:16;;;;;;;0.97;0.93;;;;;;;;;;5042169;28;20190;-83
2022/12/22 04:52:41;;;;;;;2.77;1.10;;;;;;;;;;5045569;28;20191;-83
2022/12/22 04:55:08;;;;;;;1.80;0.90;;;;;;;;;;5046431;28;20328;-83
2022/12/22 04:57:33;;;;;;;1.80;0.67;;;;;;;;;;5049619;28;20313;-83
2022/12/22 04:59:58;;;;;;;2.00;0.90;;;;;;;;;;5046894;28;20193;-83
2022/12/22 05:02:23;;;;;;;2.87;1.07;;;;;;;;;;5050257;28;20188;-83
2022/12/22 05:04:49;;;;;;;1.73;0.90;;;;;;;;;;5048068;28;20183;-83
2022/12/22 05:07:14;;;;;;;0.70;0.67;;;;;;;;;;5045221;28;20220;-83
2022/12/22 05:09:39;;;;;;;0.63;0.53;;;;;;;;;;5043547;28;20175;-83
2022/12/22 05:12:53;;;;;;;0.80;0.80;;;;;;;;;;5064140;28;20185;-83
2022/12/22 05:14:50;;;;;;;0.70;0.70;;;;;;;;;;5050393;28;20178;-83
2022/12/22 05:17:15;;;;;;;0.90;0.90;;;;;;;;;;5053460;28;20256;-83
2022/12/22 05:19:40;;;;;;;2.10;1.13;;;;;;;;;;5047163;28;21129;-83
2022/12/22 05:22:06;;;;;;;1.30;0.90;;;;;;;;;;5048381;28;20181;-83
2022/12/22 05:24:31;;;;;;;0.80;0.80;;;;;;;;;;5046408;28;20423;-82
2022/12/22 05:26:56;;;;;;;1.00;1.00;;;;;;;;;;5050066;28;20194;-83
2022/12/22 05:29:21;;;;;;;2.27;0.90;;;;;;;;;;5051964;28;20237;-83
2022/12/22 05:31:46;;;;;;;1.67;1.07;;;;;;;;;;5050304;28;20202;-83
2022/12/22 05:34:12;;;;;;;1.07;0.80;;;;;;;;;;5044912;28;20170;-83
2022/12/22 05:36:37;;;;;;;1.77;0.70;;;;;;;;;;5045829;28;20227;-83
2022/12/22 05:39:02;;;;;;;3.40;1.37;;;;;;;;;;5043184;28;20200;-83
2022/12/22 05:41:27;;;;;;;1.97;1.20;;;;;;;;;;5050805;28;20174;-83
2022/12/22 05:43:52;;;;;;;2.00;1.20;;;;;;;;;;5044600;28;20289;-82
2022/12/22 05:46:18;;;;;;;1.47;1.10;;;;;;;;;;5049017;28;20231;-82
2022/12/22 05:48:43;;;;;;;2.93;1.40;;;;;;;;;;5041500;28;20224;-83
2022/12/22 05:51:09;;;;;;;2.37;1.10;;;;;;;;;;5050609;28;20171;-83
2022/12/22 05:53:34;;;;;;;3.13;1.23;;;;;;;;;;5048765;28;20182;-83
2022/12/22 05:55:59;;;;;;;3.30;1.67;;;;;;;;;;5038021;28;20179;-83
2022/12/22 05:58:24;;;;;;;2.97;1.30;;;;;;;;;;5049242;28;20179;-82
2022/12/22 06:00:50;;;;;;;4.20;1.43;;;;;;;;;;5051054;28;20190;-83
2022/12/22 06:03:15;;;;;;;3.50;1.67;;;;;;;;;;5052712;28;20184;-83
2022/12/22 06:05:40;;;;;;;6.77;2.00;;;;;;;;;;5052520;28;20212;-83
2022/12/22 06:08:05;;;;;;;3.70;1.60;;;;;;;;;;5041782;28;20186;-83
2022/12/22 06:10:31;;;;;;;3.33;1.40;;;;;;;;;;5043987;28;20179;-83
2022/12/22 06:12:56;;;;;;;4.67;1.37;;;;;;;;;;5042123;28;20181;-78
2022/12/22 06:15:21;;;;;;;2.07;1.60;;;;;;;;;;5048721;28;20176;-82
2022/12/22 06:17:46;;;;;;;4.20;1.50;;;;;;;;;;5048141;28;20224;-82
2022/12/22 06:20:12;;;;;;;3.33;1.90;;;;;;;;;;5051765;28;20219;-83
2022/12/22 06:22:38;;;;;;;3.77;2.03;;;;;;;;;;5056360;28;20177;-82
2022/12/22 06:25:03;;;;;;;4.53;1.80;;;;;;;;;;5050284;28;20200;-82
2022/12/22 06:27:28;;;;;;;5.23;1.70;;;;;;;;;;5043870;28;20264;-82
2022/12/22 06:29:53;;;;;;;4.67;2.20;;;;;;;;;;5043960;28;20178;-82
2022/12/22 06:32:18;;;;;;;4.17;1.70;;;;;;;;;;5049009;28;20193;-82
2022/12/22 06:34:44;;;;;;;5.90;2.27;;;;;;;;;;5047577;28;20197;-82
2022/12/22 06:37:09;;;;;;;4.43;2.10;;;;;;;;;;5010166;28;20197;-82
2022/12/22 06:39:34;;;;;;;2.63;1.57;;;;;;;;;;5008519;28;20195;-82
2022/12/22 06:44:43;;;;;;;4.90;2.10;;;;;;;;;;5030014;28;20469;-82
2022/12/22 06:47:09;;;;;;;7.20;2.43;;;;;;;;;;5010401;28;20202;-82
2022/12/22 06:49:34;;;;;;;4.27;2.60;;;;;;;;;;5008622;28;20180;-81
2022/12/22 06:51:59;;;;;;;6.13;2.03;;;;;;;;;;5006948;28;20170;-82
2022/12/22 06:54:24;;;;;;;4.87;2.60;;;;;;;;;;5009352;28;20206;-81
2022/12/22 06:56:49;;;;;;;8.17;2.10;;;;;;;;;;5003928;28;20186;-82
2022/12/22 06:59:14;;;;;;;5.20;2.53;;;;;;;;;;5025482;28;20233;-82
2022/12/22 07:01:41;;;;;;;7.10;2.17;;;;;;;;;;5010122;28;20187;-81
2022/12/22 07:04:06;;;;;;;3.40;1.77;;;;;;;;;;5011735;28;20178;-82
2022/12/22 07:06:31;;;;;;;5.23;1.80;;;;;;;;;;5004461;28;20195;-82
2022/12/22 07:08:57;;;;;;;6.83;2.47;;;;;;;;;;5014242;28;20182;-83
2022/12/22 07:11:22;;;;;;;7.57;2.50;;;;;;;;;;5012634;28;20268;-82
2022/12/22 07:13:47;;;;;;;6.60;2.30;;;;;;;;;;5003660;28;20181;-83
2022/12/22 07:16:12;;;;;;;4.70;2.10;;;;;;;;;;5011224;28;20179;-82
2022/12/22 07:18:39;;;;;;;6.67;2.33;;;;;;;;;;5010128;28;20191;-81
2022/12/22 07:21:06;;;;;;;7.10;2.30;;;;;;;;;;5006512;28;20177;-81
2022/12/22 07:23:31;;;;;;;10.77;2.67;;;;;;;;;;5022939;28;20178;-81
2022/12/22 07:25:57;;;;;;;5.53;2.47;;;;;;;;;;5003532;28;20208;-81
2022/12/22 07:28:22;;;;;;;7.10;2.70;;;;;;;;;;5005174;28;20233;-82
2022/12/22 07:30:48;;;;;;;9.17;2.80;;;;;;;;;;5003832;28;20178;-82
2022/12/22 07:33:13;;;;;;;4.87;2.27;;;;;;;;;;5004846;28;20201;-81
2022/12/22 07:35:38;;;;;;;8.20;2.23;;;;;;;;;;5010722;28;20302;-82
2022/12/22 07:38:03;;;;;;;6.90;2.70;;;;;;;;;;5014347;28;20516;-81
2022/12/22 07:40:29;;;;;;;6.20;2.80;;;;;;;;;;5008591;28;20182;-81
2022/12/22 07:42:54;;;;;;;3.53;2.43;;;;;;;;;;5009716;28;20187;-82
2022/12/22 07:45:20;;;;;;;10.03;2.47;;;;;;;;;;5010517;28;20185;-82
2022/12/22 07:47:45;;;;;;;3.57;1.77;;;;;;;;;;5009942;28;20277;-82
2022/12/22 07:50:24;;;;;;;5.60;2.37;;;;;;;;;;5008057;28;20273;-81
2022/12/22 07:53:00;;;;;;;9.17;2.40;;;;;;;;;;5008801;28;20175;-82
2022/12/22 07:55:27;;;;;;;6.07;3.00;;;;;;;;;;5006421;28;20192;-81
2022/12/22 07:57:52;;;;;;;6.10;1.90;;;;;;;;;;5006469;28;20198;-82
2022/12/22 08:00:18;;;;;;;7.90;2.47;;;;;;;;;;5009570;28;20186;-82
2022/12/22 08:02:50;;;;;;;6.10;1.83;;;;;;;;;;5009767;28;20257;-82
2022/12/22 08:05:16;;;;;;;8.00;2.23;;;;;;;;;;5008412;28;20272;-82
2022/12/22 08:07:41;;;;;;;10.43;2.03;;;;;;;;;;5002922;28;20301;-82
2022/12/22 08:10:07;;;;;;;6.90;2.63;;;;;;;;;;5008669;28;20192;-82
2022/12/22 08:12:32;;;;;;;5.10;2.20;;;;;;;;;;5010490;28;20261;-81
2022/12/22 08:14:58;;;;;;;10.73;2.50;;;;;;;;;;5003402;28;20251;-82
2022/12/22 08:17:25;;;;;;;5.37;1.83;;;;;;;;;;5008724;28;20203;-82
2022/12/22 08:19:50;;;;;;;5.47;2.10;;;;;;;;;;5013796;28;20177;-82
2022/12/22 08:22:15;;;;;;;4.87;2.30;;;;;;;;;;5009591;28;20252;-81
2022/12/22 08:24:40;;;;;;;7.53;2.37;;;;;;;;;;5010701;28;20177;-82
2022/12/22 08:27:10;;;;;;;6.10;2.17;;;;;;;;;;5011758;28;20212;-83
2022/12/22 08:29:38;;;;;;;9.20;2.97;;;;;;;;;;5009591;28;20172;-82
2022/12/22 08:32:03;;;;;;;6.10;2.00;;;;;;;;;;5013091;28;20179;-81
2022/12/22 08:34:29;;;;;;;5.37;1.80;;;;;;;;;;5014617;28;20182;-83
2022/12/22 08:36:56;;;;;;;5.37;2.23;;;;;;;;;;5050806;28;20225;-82
2022/12/22 08:39:23;;;;;;;6.17;2.40;;;;;;;;;;5048384;28;20206;-81
2022/12/22 08:41:48;;;;;;;6.23;2.33;;;;;;;;;;5052339;28;20267;-82
2022/12/22 08:44:14;;;;;;;5.37;2.60;;;;;;;;;;5047481;28;20261;-81
2022/12/22 08:46:39;;;;;;;6.00;3.20;;;;;;;;;;5055274;28;20200;-82
2022/12/22 08:49:04;;;;;;;4.17;1.47;;;;;;;;;;5047777;28;20182;-81
2022/12/22 08:51:30;;;;;;;5.73;2.43;;;;;;;;;;5045889;28;20212;-81
2022/12/22 08:53:55;;;;;;;5.17;2.63;;;;;;;;;;5047562;28;20170;-82
2022/12/22 08:56:20;;;;;;;6.83;2.20;;;;;;;;;;5046356;28;20182;-81
2022/12/22 08:58:45;;;;;;;5.47;1.90;;;;;;;;;;5047695;28;20210;-81
2022/12/22 09:01:14;;;;;;;4.40;1.20;;;;;;;;;;5050295;28;20174;-81
2022/12/22 09:03:40;;;;;;;2.63;1.57;;;;;;;;;;5053706;28;20183;-81
2022/12/22 09:06:05;;;;;;;3.63;1.87;;;;;;;;;;5049969;28;20197;-80
2022/12/22 09:08:30;;;;;;;4.83;2.20;;;;;;;;;;5044970;28;20175;-81
2022/12/22 09:10:56;;;;;;;3.80;1.60;;;;;;;;;;5051368;28;20268;-81
2022/12/22 09:13:21;;;;;;;3.47;1.30;;;;;;;;;;5044634;28;20239;-81
2022/12/22 09:15:46;;;;;;;3.13;1.50;;;;;;;;;;5050053;28;20174;-81
2022/12/22 09:18:11;;;;;;;3.50;1.60;;;;;;;;;;5042611;28;20209;-80
2022/12/22 09:20:36;;;;;;;2.40;1.40;;;;;;;;;;5051705;28;20175;-81
2022/12/22 09:23:02;;;;;;;2.17;1.30;;;;;;;;;;5044215;28;20275;-81
2022/12/22 09:25:27;;;;;;;4.07;1.20;;;;;;;;;;5053285;28;20186;-81
2022/12/22 09:27:52;;;;;;;4.67;1.73;;;;;;;;;;5046097;28;20167;-81
2022/12/22 09:30:17;;;;;;;4.00;1.70;;;;;;;;;;5053229;28;20222;-81
2022/12/22 09:32:42;;;;;;;3.80;1.47;;;;;;;;;;5047131;28;20252;-81
2022/12/22 09:35:08;;;;;;;3.83;1.80;;;;;;;;;;5050408;28;20210;-82
2022/12/22 09:37:33;;;;;;;5.80;1.63;;;;;;;;;;5045628;28;20208;-81
2022/12/22 09:39:58;;;;;;;2.23;1.30;;;;;;;;;;5049939;28;20178;-82
2022/12/22 09:42:23;;;;;;;2.43;1.10;;;;;;;;;;5066494;28;20186;-81
2022/12/22 09:44:50;;;;;;;3.47;1.50;;;;;;;;;;5050318;28;20257;-81
2022/12/22 09:47:15;;;;;;;4.60;1.50;;;;;;;;;;5045901;28;20203;-81
2022/12/22 09:49:40;;;;;;;4.00;1.37;;;;;;;;;;5052600;28;20182;-81
2022/12/22 09:52:17;;;;;;;3.37;1.50;;;;;;;;;;5043128;28;20179;-82
2022/12/22 09:54:43;;;;;;;4.70;1.33;;;;;;;;;;5044506;28;20173;-81
2022/12/22 09:57:10;;;;;;;3.73;1.47;;;;;;;;;;5046705;28;20180;-81
2022/12/22 09:59:35;;;;;;;1.43;1.00;;;;;;;;;;5051804;28;20178;-81
2022/12/22 10:02:13;;;;;;;0.90;0.90;;;;;;;;;;5049589;28;20185;-81
2022/12/22 10:04:48;;;;;;;2.20;0.80;;;;;;;;;;5042546;28;20338;-80
2022/12/22 10:07:43;;;;;;;4.30;1.97;;;;;;;;;;5050027;28;20213;-81
2022/12/22 10:10:23;;;;;;;3.57;1.30;;;;;;;;;;5020839;28;20186;-81
2022/12/22 10:12:49;;;;;;;2.10;1.53;;;;;;;;;;5047886;28;20178;-81
2022/12/22 10:15:14;;;;;;;2.23;1.83;;;;;;;;;;5042526;28;20230;-81
2022/12/22 10:17:40;;;;;;;2.03;0.93;;;;;;;;;;5048833;28;20251;-81
2022/12/22 10:20:17;;;;;;;4.30;1.60;;;;;;;;;;5044750;28;20180;-82
2022/12/22 10:22:48;;;;;;;4.93;1.30;;;;;;;;;;5043315;28;20182;-80
2022/12/22 10:25:43;;;;;;;2.67;1.43;;;;;;;;;;5048913;28;20183;-81
2022/12/22 10:28:14;;;;;;;1.83;1.33;;;;;;;;;;5029420;28;20221;-81
2022/12/22 10:30:40;;;;;;;2.47;1.17;;;;;;;;;;5048288;28;20589;-81
2022/12/22 10:33:05;;;;;;;1.77;1.20;;;;;;;;;;5049697;28;20183;-81
2022/12/22 10:36:05;;;;;;;1.83;1.00;;;;;;;;;;5039308;28;20260;-81
2022/12/22 10:38:32;;;;;;;3.10;1.20;;;;;;;;;;5007522;28;20175;-81
2022/12/22 10:41:00;;;;;;;1.10;1.00;;;;;;;;;;5005264;28;20176;-81
2022/12/22 10:43:29;;;;;;;4.83;1.27;;;;;;;;;;5006330;28;20223;-81
2022/12/22 10:45:55;;;;;;;1.27;1.00;;;;;;;;;;5014197;28;20238;-81
2022/12/22 10:48:27;;;;;;;3.17;1.47;;;;;;;;;;5011117;28;20212;-81
2022/12/22 10:50:53;;;;;;;2.20;1.10;;;;;;;;;;5007497;28;20219;-81
2022/12/22 10:53:18;;;;;;;2.37;1.13;;;;;;;;;;5007993;28;20207;-81
2022/12/22 10:55:43;;;;;;;2.77;1.30;;;;;;;;;;5009002;28;20206;-80
2022/12/22 10:58:08;;;;;;;1.17;1.03;;;;;;;;;;5009803;28;20206;-81
2022/12/22 11:00:34;;;;;;;3.60;1.80;;;;;;;;;;5009291;28;20177;-81
2022/12/22 11:03:00;;;;;;;2.43;1.50;;;;;;;;;;5004131;28;20248;-80
2022/12/22 11:05:26;;;;;;;6.90;3.93;;;;;;;;;;5008897;28;20264;-81
2022/12/22 11:07:51;;;;;;;3.03;1.40;;;;;;;;;;5009140;28;20212;-80
2022/12/22 11:10:21;;;;;;;3.47;1.57;;;;;;;;;;5009220;28;20190;-81
2022/12/22 11:12:46;;;;;;;1.73;1.10;;;;;;;;;;5026156;28;20181;-81
2022/12/22 11:15:35;;;;;;;6.53;1.37;;;;;;;;;;5012592;28;20316;-81
2022/12/22 11:18:21;;;;;;;4.67;1.57;;;;;;;;;;5009355;28;20207;-81
2022/12/22 11:21:00;;;;;;;3.33;1.40;;;;;;;;;;5018673;28;20308;-82
2022/12/22 11:23:31;;;;;;;4.70;1.87;;;;;;;;;;5029108;28;20210;-81
2022/12/22 11:26:11;;;;;;;1.83;1.10;;;;;;;;;;5007036;28;20215;-81
2022/12/22 11:28:36;;;;;;;2.03;1.20;;;;;;;;;;5007131;28;20218;-81
2022/12/22 11:31:01;;;;;;;2.20;1.00;;;;;;;;;;5025826;28;20182;-81
2022/12/22 11:33:38;;;;;;;2.13;1.23;;;;;;;;;;5006705;28;20182;-82
2022/12/22 11:36:08;;;;;;;1.40;1.03;;;;;;;;;;5019403;28;20230;-81
2022/12/22 11:38:54;;;;;;;2.83;1.50;;;;;;;;;;5002297;28;20176;-81
2022/12/22 11:41:34;;;;;;;2.33;1.50;;;;;;;;;;4989570;28;20255;-82
2022/12/22 11:44:12;;;;;;;4.07;1.53;;;;;;;;;;5008620;28;20178;-81
2022/12/22 11:46:45;;;;;;;2.03;0.90;;;;;;;;;;5029577;28;20203;-81
2022/12/22 11:49:22;;;;;;;2.73;1.20;;;;;;;;;;5004759;28;20175;-82
2022/12/22 11:52:01;;;;;;;2.43;1.57;;;;;;;;;;5008896;28;20253;-82
2022/12/22 11:54:36;;;;;;;3.90;1.37;;;;;;;;;;5004884;28;20191;-81
2022/12/22 11:57:09;;;;;;;2.50;1.50;;;;;;;;;;5006224;28;20193;-81
2022/12/22 11:59:50;;;;;;;3.93;1.40;;;;;;;;;;5006914;28;20209;-81
2022/12/22 12:02:18;;;;;;;3.40;1.10;;;;;;;;;;5004180;28;20247;-81
2022/12/22 12:05:12;;;;;;;3.37;1.93;;;;;;;;;;5011640;28;20175;-81
2022/12/22 12:07:44;;;;;;;4.13;2.30;;;;;;;;;;5005764;28;20214;-81
2022/12/22 12:10:16;;;;;;;3.47;1.30;;;;;;;;;;5010165;28;20175;-80
2022/12/22 12:12:54;;;;;;;3.17;1.90;;;;;;;;;;5007784;28;20166;-81
2022/12/22 12:15:38;;;;;;;9.40;1.70;;;;;;;;;;5024076;28;20179;-80
2022/12/22 12:18:18;;;;;;;5.03;1.67;;;;;;;;;;5025413;28;20205;-81
2022/12/22 12:20:43;;;;;;;6.60;1.83;;;;;;;;;;5012819;28;20189;-81
2022/12/22 12:23:14;;;;;;;3.00;1.40;;;;;;;;;;5013759;28;20198;-81
2022/12/22 12:25:46;;;;;;;3.50;1.50;;;;;;;;;;5010424;28;20179;-81
2022/12/22 12:28:37;;;;;;;4.80;1.67;;;;;;;;;;5012399;28;20183;-81
2022/12/22 12:31:03;;;;;;;2.10;1.37;;;;;;;;;;4974768;28;20204;-81
2022/12/22 12:33:37;;;;;;;4.67;1.90;;;;;;;;;;5006648;28;20220;-81
2022/12/22 12:36:12;;;;;;;2.37;1.57;;;;;;;;;;5029979;28;20291;-81
2022/12/22 12:38:43;;;;;;;3.70;1.30;;;;;;;;;;5038638;28;20176;-81
2022/12/22 12:41:09;;;;;;;1.57;1.17;;;;;;;;;;5062057;28;20182;-80
2022/12/22 12:43:34;;;;;;;4.23;1.73;;;;;;;;;;5048544;28;20205;-81
2022/12/22 12:45:59;;;;;;;2.43;1.63;;;;;;;;;;5048623;28;20200;-82
2022/12/22 12:48:25;;;;;;;3.43;1.47;;;;;;;;;;5040511;28;20961;-81
2022/12/22 12:50:51;;;;;;;6.63;2.10;;;;;;;;;;5039928;28;20181;-81
2022/12/22 12:53:17;;;;;;;4.97;1.97;;;;;;;;;;5048522;28;20176;-80
2022/12/22 12:55:43;;;;;;;3.10;1.40;;;;;;;;;;5042568;28;20175;-80
2022/12/22 12:58:11;;;;;;;4.23;1.60;;;;;;;;;;5047660;28;20184;-81
2022/12/22 13:00:37;;;;;;;5.63;1.83;;;;;;;;;;5036676;28;20179;-81
2022/12/22 13:03:09;;;;;;;4.75;1.60;;;;;;;;;;5043869;28;20181;-80
2022/12/22 13:05:48;;;;;;;3.37;1.50;;;;;;;;;;5045304;28;20307;-81
2022/12/22 13:08:14;;;;;;;1.87;1.07;;;;;;;;;;5044743;28;20174;-81
2022/12/22 13:10:51;;;;;;;7.57;4.10;;;;;;;;;;5040453;28;20256;-81
2022/12/22 13:13:20;;;;;;;2.10;1.03;;;;;;;;;;5039563;28;20174;-80
2022/12/22 13:15:45;;;;;;;2.47;1.37;;;;;;;;;;5049456;28;20190;-81
2022/12/22 13:18:27;;;;;;;1.90;1.37;;;;;;;;;;5042957;28;20241;-81
2022/12/22 13:21:12;;;;;;;2.73;1.50;;;;;;;;;;5048896;28;20178;-81
2022/12/22 13:23:39;;;;;;;3.00;1.53;;;;;;;;;;5050849;28;20265;-81
2022/12/22 13:26:05;;;;;;;2.60;1.30;;;;;;;;;;5048451;28;20205;-81
2022/12/22 13:28:31;;;;;;;6.10;2.00;;;;;;;;;;5049307;28;20174;-81
2022/12/22 13:31:01;;;;;;;3.63;1.77;;;;;;;;;;5051091;28;20270;-81
2022/12/22 13:33:29;;;;;;;7.50;3.10;;;;;;;;;;5050335;28;20269;-81
2022/12/22 13:35:55;;;;;;;2.83;1.27;;;;;;;;;;5046451;28;20218;-82
2022/12/22 13:38:28;;;;;;;5.17;2.03;;;;;;;;;;5049184;28;20219;-81
2022/12/22 13:40:53;;;;;;;6.87;2.07;;;;;;;;;;5056146;28;20174;-81
2022/12/22 13:43:19;;;;;;;6.03;3.33;;;;;;;;;;5050781;28;20259;-81
2022/12/22 13:45:45;;;;;;;6.93;4.03;;;;;;;;;;5050348;28;20239;-81
2022/12/22 13:48:18;;;;;;;8.23;3.17;;;;;;;;;;5050771;28;20179;-82
2022/12/22 13:50:48;;;;;;;7.43;2.93;;;;;;;;;;5049328;28;20167;-81
2022/12/22 13:53:37;;;;;;;7.53;2.90;;;;;;;;;;5048939;28;20200;-81
2022/12/22 13:56:04;;;;;;;5.13;2.97;;;;;;;;;;5040397;28;20194;-80
2022/12/22 13:58:34;;;;;;;7.33;1.90;;;;;;;;;;5048647;28;20190;-81
2022/12/22 14:01:09;;;;;;;7.50;2.37;;;;;;;;;;5052236;28;20205;-81
2022/12/22 14:03:34;;;;;;;5.60;2.73;;;;;;;;;;5047367;28;20184;-81
2022/12/22 14:05:59;;;;;;;5.50;2.27;;;;;;;;;;5048521;28;20202;-81
2022/12/22 14:08:24;;;;;;;12.23;2.90;;;;;;;;;;5042091;28;20182;-81
2022/12/22 14:10:51;;;;;;;10.13;3.33;;;;;;;;;;5048964;28;20180;-81
2022/12/22 14:13:18;;;;;;;12.27;3.83;;;;;;;;;;5050142;28;20185;-81
2022/12/22 14:15:44;;;;;;;8.77;2.67;;;;;;;;;;5045327;28;20170;-81
2022/12/22 14:18:16;;;;;;;8.63;3.20;;;;;;;;;;5050843;28;20256;-81
2022/12/22 14:20:43;;;;;;;8.70;3.47;;;;;;;;;;5039936;28;20186;-81
2022/12/22 14:23:11;;;;;;;6.60;2.90;;;;;;;;;;5047397;28;20264;-80
2022/12/22 14:25:39;;;;;;;7.63;3.50;;;;;;;;;;5048013;28;20170;-81
2022/12/22 14:28:05;;;;;;;14.80;4.87;;;;;;;;;;5043005;28;20187;-81
2022/12/22 14:30:35;;;;;;;10.77;5.20;;;;;;;;;;5049542;28;20178;-82
2022/12/22 14:33:15;;;;;;;8.20;3.33;;;;;;;;;;5048992;28;20223;-82
2022/12/22 14:35:40;;;;;;;13.60;4.27;;;;;;;;;;5039764;28;20283;-81
2022/12/22 14:38:05;;;;;;;10.27;4.20;;;;;;;;;;5047952;28;20179;-82
2022/12/22 14:40:35;;;;;;;8.93;3.63;;;;;;;;;;5048374;28;20186;-81
2022/12/22 14:43:01;;;;;;;10.00;3.83;;;;;;;;;;5049605;28;20196;-81
2022/12/22 14:45:27;;;;;;;11.57;3.07;;;;;;;;;;5047685;28;20170;-81
2022/12/22 14:47:53;;;;;;;12.07;3.33;;;;;;;;;;5045027;28;20209;-82
2022/12/22 14:50:19;;;;;;;7.87;3.27;;;;;;;;;;5048135;28;20175;-81
2022/12/22 14:52:52;;;;;;;13.57;3.63;;;;;;;;;;5049377;28;20178;-81
2022/12/22 14:55:23;;;;;;;10.63;4.10;;;;;;;;;;5044218;28;20317;-81
2022/12/22 14:57:53;;;;;;;13.50;4.23;;;;;;;;;;5049664;28;20169;-81
2022/12/22 15:00:22;;;;;;;12.87;4.57;;;;;;;;;;5050141;28;20186;-81
2022/12/22 15:02:52;;;;;;;9.93;3.17;;;;;;;;;;5045076;28;20186;-81
2022/12/22 15:05:28;;;;;;;8.03;3.10;;;;;;;;;;5047457;28;20184;-82
2022/12/22 15:07:54;;;;;;;9.13;3.63;;;;;;;;;;5047304;28;20212;-82
2022/12/22 15:10:20;;;;;;;12.13;3.60;;;;;;;;;;5045051;28;20340;-81
2022/12/22 15:12:46;;;;;;;11.90;3.47;;;;;;;;;;5048161;28;20230;-81
2022/12/22 15:15:13;;;;;;;12.43;3.30;;;;;;;;;;5043672;28;20198;-81
2022/12/22 15:17:38;;;;;;;6.23;3.03;;;;;;;;;;5049104;28;20205;-82
2022/12/22 15:20:04;;;;;;;15.90;3.43;;;;;;;;;;5043928;28;20207;-82
2022/12/22 15:22:29;;;;;;;17.30;4.73;;;;;;;;;;5039058;28;20182;-81
2022/12/22 15:24:55;;;;;;;10.87;3.10;;;;;;;;;;5048802;28;20185;-81
2022/12/22 15:27:20;;;;;;;13.00;4.40;;;;;;;;;;5041423;28;20203;-81
2022/12/22 15:29:45;;;;;;;10.33;3.53;;;;;;;;;;5047612;28;20182;-82
2022/12/22 15:32:11;;;;;;;13.27;3.60;;;;;;;;;;5047928;28;20293;-81
2022/12/22 15:34:36;;;;;;;13.47;4.60;;;;;;;;;;5045469;28;20177;-81
2022/12/22 15:37:02;;;;;;;12.30;4.13;;;;;;;;;;5021221;28;20292;-81
2022/12/22 15:39:27;;;;;;;11.27;3.33;;;;;;;;;;5002943;28;20175;-81
2022/12/22 15:41:53;;;;;;;15.80;4.20;;;;;;;;;;5011552;28;20185;-81
2022/12/22 15:44:18;;;;;;;9.20;4.07;;;;;;;;;;5003854;28;20211;-81
2022/12/22 15:46:47;;;;;;;8.73;3.13;;;;;;;;;;5022730;28;20233;-81
2022/12/22 15:49:15;;;;;;;9.33;2.33;;;;;;;;;;5025842;28;20189;-81
2022/12/22 15:51:42;;;;;;;13.93;4.33;;;;;;;;;;5011852;28;20181;-81
2022/12/22 15:54:10;;;;;;;10.67;5.37;;;;;;;;;;5003521;28;20197;-81
2022/12/22 15:56:35;;;;;;;11.30;3.73;;;;;;;;;;5004658;28;20186;-82
2022/12/22 15:59:00;;;;;;;8.50;3.57;;;;;;;;;;5003419;28;20197;-81
2022/12/22 16:01:26;;;;;;;12.60;3.57;;;;;;;;;;5005339;28;20193;-81
2022/12/22 16:03:51;;;;;;;11.63;3.53;;;;;;;;;;5007479;28;20170;-81
2022/12/22 16:06:18;;;;;;;12.10;3.37;;;;;;;;;;5001614;28;20212;-82
2022/12/22 16:08:48;;;;;;;13.50;4.50;;;;;;;;;;5003699;28;20812;-81
2022/12/22 16:11:13;;;;;;;14.23;3.73;;;;;;;;;;5017067;28;20175;-82
2022/12/22 16:13:38;;;;;;;12.37;3.87;;;;;;;;;;5005965;28;20179;-81
2022/12/22 16:16:04;;;;;;;9.23;3.17;;;;;;;;;;5020626;28;20623;-81
2022/12/22 16:18:29;;;;;;;10.90;4.07;;;;;;;;;;5007059;28;20200;-82
2022/12/22 16:20:55;;;;;;;8.63;3.27;;;;;;;;;;5009815;28;20206;-81
2022/12/22 16:23:22;;;;;;;12.20;3.20;;;;;;;;;;5005076;28;20220;-82
2022/12/22 16:25:48;;;;;;;16.87;3.63;;;;;;;;;;5039332;28;20184;-81
2022/12/22 16:28:19;;;;;;;12.43;3.50;;;;;;;;;;5011730;28;20182;-81
2022/12/22 16:30:44;;;;;;;8.83;3.67;;;;;;;;;;5007790;28;20280;-82
2022/12/22 16:33:10;;;;;;;11.10;3.63;;;;;;;;;;5006773;28;20268;-81
2022/12/22 16:35:36;;;;;;;9.80;2.90;;;;;;;;;;5015897;28;20248;-81
2022/12/22 16:38:01;;;;;;;8.37;2.83;;;;;;;;;;5042152;28;20239;-81
2022/12/22 16:40:26;;;;;;;13.87;4.57;;;;;;;;;;5042421;28;20182;-82
2022/12/22 16:42:59;;;;;;;13.30;3.03;;;;;;;;;;5045933;28;20186;-81
2022/12/22 16:45:26;;;;;;;11.13;2.90;;;;;;;;;;5060515;28;20186;-82
2022/12/22 16:47:52;;;;;;;14.47;4.20;;;;;;;;;;5042653;28;20193;-82
2022/12/22 16:50:19;;;;;;;11.50;2.83;;;;;;;;;;5044623;28;20175;-82
2022/12/22 16:52:45;;;;;;;14.30;3.83;;;;;;;;;;5043718;28;20209;-81
2022/12/22 16:55:15;;;;;;;11.23;6.07;;;;;;;;;;5047642;28;20197;-82
2022/12/22 16:57:40;;;;;;;15.57;3.83;;;;;;;;;;5044268;28;20539;-81
2022/12/22 17:00:06;;;;;;;9.77;3.33;;;;;;;;;;5042382;28;20224;-82
2022/12/22 17:02:32;;;;;;;13.67;4.03;;;;;;;;;;5041626;28;20280;-82
2022/12/22 17:05:00;;;;;;;11.27;3.80;;;;;;;;;;5039647;28;20187;-82
2022/12/22 17:07:25;;;;;;;16.03;5.70;;;;;;;;;;5042335;28;20759;-81
2022/12/22 17:09:56;;;;;;;17.77;4.80;;;;;;;;;;5042261;28;20217;-82
2022/12/22 17:12:24;;;;;;;11.60;4.53;;;;;;;;;;5043410;28;20175;-81
2022/12/22 17:14:51;;;;;;;12.73;3.80;;;;;;;;;;5044725;28;20211;-81
2022/12/22 17:17:17;;;;;;;11.53;3.03;;;;;;;;;;5043563;28;20293;-81
2022/12/22 17:19:43;;;;;;;11.63;3.50;;;;;;;;;;5050377;28;20452;-81
2022/12/22 17:22:23;;;;;;;10.57;3.77;;;;;;;;;;5048162;28;20211;-81
2022/12/22 17:24:49;;;;;;;12.53;3.10;;;;;;;;;;5045657;28;20184;-81
2022/12/22 17:27:14;;;;;;;14.73;3.83;;;;;;;;;;5047412;28;20199;-82
2022/12/22 17:29:40;;;;;;;16.90;3.47;;;;;;;;;;5047289;28;20304;-81
2022/12/22 17:32:09;;;;;;;13.93;4.33;;;;;;;;;;5046336;28;20270;-81
2022/12/22 17:34:34;;;;;;;15.90;3.60;;;;;;;;;;5048576;28;20198;-82
2022/12/22 17:36:59;;;;;;;10.53;3.13;;;;;;;;;;5049982;28;20257;-82
2022/12/22 17:39:24;;;;;;;8.87;3.30;;;;;;;;;;5049107;28;20209;-84
2022/12/22 17:41:50;;;;;;;8.00;2.70;;;;;;;;;;5048435;28;20179;-85
2022/12/22 17:44:18;;;;;;;15.13;3.63;;;;;;;;;;5046399;28;20178;-85
2022/12/22 17:46:43;;;;;;;12.60;3.03;;;;;;;;;;5049748;28;20198;-85
2022/12/22 17:49:08;;;;;;;11.17;2.53;;;;;;;;;;5047418;28;20190;-85
2022/12/22 17:51:34;;;;;;;13.50;3.80;;;;;;;;;;5046875;28;20175;-85
2022/12/22 17:53:59;;;;;;;15.17;3.60;;;;;;;;;;5041682;28;20201;-85
2022/12/22 17:56:25;;;;;;;9.40;3.60;;;;;;;;;;5045630;28;20181;-85
2022/12/22 17:58:51;;;;;;;10.50;3.03;;;;;;;;;;5051731;28;20184;-84
2022/12/22 18:01:20;;;;;;;9.60;3.30;;;;;;;;;;5047247;28;20193;-84
2022/12/22 18:03:45;;;;;;;14.53;7.03;;;;;;;;;;5041736;28;20175;-85
2022/12/22 18:06:11;;;;;;;11.53;5.20;;;;;;;;;;5046914;28;20250;-84
2022/12/22 18:08:36;;;;;;;11.37;3.23;;;;;;;;;;5044662;28;20175;-84
2022/12/22 18:11:02;;;;;;;14.13;3.87;;;;;;;;;;5046472;28;20170;-85
2022/12/22 18:13:27;;;;;;;16.10;3.63;;;;;;;;;;5049047;28;20169;-84
2022/12/22 18:15:54;;;;;;;15.43;4.20;;;;;;;;;;5049923;28;20263;-84
2022/12/22 18:18:19;;;;;;;20.60;4.97;;;;;;;;;;5048412;28;20196;-84
2022/12/22 18:20:45;;;;;;;16.43;7.10;;;;;;;;;;5047699;28;20170;-84